createdAt,value
2018-11-02T00:01:33.717Z,18.60
2018-11-02T00:04:03.457Z,18.70
2018-11-02T00:06:34.215Z,19.90
2018-11-02T00:09:03.396Z,17.97
2018-11-02T00:11:32.953Z,25.83
2018-11-02T00:14:02.428Z,21.40
2018-11-02T00:16:31.875Z,20.93
2018-11-02T00:19:01.811Z,18.23
2018-11-02T00:21:31.519Z,20.53
2018-11-02T00:24:01.059Z,22.80
2018-11-02T00:26:30.695Z,22.37
2018-11-02T00:28:59.981Z,20.77
2018-11-02T00:31:29.266Z,23.27
2018-11-02T00:33:59.040Z,25.63
2018-11-02T00:36:28.307Z,22.83
2018-11-02T00:38:57.831Z,21.80
2018-11-02T00:41:27.494Z,24.13
2018-11-02T00:43:56.900Z,26.97
2018-11-02T00:46:26.207Z,24.60
2018-11-02T00:48:55.963Z,24.07
2018-11-02T00:51:25.202Z,27.07
2018-11-02T00:53:54.441Z,25.40
2018-11-02T00:56:24.200Z,21.53
2018-11-02T00:58:53.504Z,27.17
2018-11-02T01:01:22.902Z,23.37
2018-11-02T01:03:52.458Z,21.50
2018-11-02T01:06:22.001Z,25.67
2018-11-02T01:08:51.386Z,24.03
2018-11-02T01:11:21.248Z,24.63
2018-11-02T01:13:50.577Z,26.07
2018-11-02T01:16:19.917Z,24.03
2018-11-02T01:18:49.597Z,25.23
2018-11-02T01:21:18.960Z,31.17
2018-11-02T01:23:48.404Z,30.13
2018-11-02T01:26:18.078Z,28.93
2018-11-02T01:28:47.780Z,28.30
2018-11-02T01:31:17.197Z,26.87
2018-11-02T01:33:46.794Z,28.33
2018-11-02T01:36:16.261Z,27.33
2018-11-02T01:38:45.501Z,26.33
2018-11-02T01:41:15.157Z,29.13
2018-11-02T01:43:44.524Z,27.77
2018-11-02T01:46:14.380Z,24.80
2018-11-02T01:48:44.054Z,31.30
2018-11-02T01:51:13.378Z,27.67
2018-11-02T01:53:42.759Z,29.63
2018-11-02T01:56:12.303Z,31.10
2018-11-02T01:58:41.612Z,28.60
2018-11-02T02:01:10.669Z,27.93
2018-11-02T02:03:40.253Z,25.57
2018-11-02T02:06:09.591Z,28.47
2018-11-02T02:08:38.791Z,31.90
2018-11-02T02:11:08.374Z,29.90
2018-11-02T02:13:37.782Z,26.83
2018-11-02T02:16:07.139Z,28.63
2018-11-02T02:18:36.777Z,28.67
2018-11-02T02:21:06.169Z,26.20
2018-11-02T02:23:35.307Z,29.00
2018-11-02T02:26:05.305Z,29.73
2018-11-02T02:28:34.616Z,27.47
2018-11-02T02:31:03.946Z,27.00
2018-11-02T02:33:33.891Z,24.57
2018-11-02T02:36:03.464Z,26.03
2018-11-02T02:38:32.648Z,24.83
2018-11-02T02:41:02.639Z,27.80
2018-11-02T02:43:32.136Z,25.83
2018-11-02T02:46:01.357Z,30.07
2018-11-02T02:48:30.897Z,27.33
2018-11-02T02:51:00.089Z,25.10
2018-11-02T02:53:29.293Z,26.87
2018-11-02T02:55:58.943Z,21.30
2018-11-02T02:58:28.323Z,24.13
2018-11-02T03:00:57.619Z,28.27
2018-11-02T03:03:27.222Z,30.23
2018-11-02T03:05:56.458Z,28.30
2018-11-02T03:08:25.807Z,28.33
2018-11-02T03:10:55.492Z,27.57
2018-11-02T03:13:24.798Z,25.10
2018-11-02T03:15:54.065Z,28.53
2018-11-02T03:18:23.727Z,25.17
2018-11-02T03:20:52.978Z,25.97
2018-11-02T03:23:22.325Z,25.90
2018-11-02T03:25:51.680Z,29.60
2018-11-02T03:28:20.855Z,27.37
2018-11-02T03:30:50.116Z,28.17
2018-11-02T03:33:19.545Z,26.90
2018-11-02T03:35:48.834Z,28.80
2018-11-02T03:38:18.594Z,24.93
2018-11-02T03:40:48.510Z,25.67
2018-11-02T03:43:17.977Z,28.77
2018-11-02T03:45:47.416Z,28.13
2018-11-02T03:48:17.176Z,25.07
2018-11-02T03:50:46.540Z,33.60
2018-11-02T03:53:16.181Z,26.53
2018-11-02T03:55:45.976Z,31.80
2018-11-02T03:58:15.440Z,24.37
2018-11-02T04:00:45.913Z,33.80
2018-11-02T04:03:15.529Z,31.10
2018-11-02T04:05:44.866Z,27.20
2018-11-02T04:08:14.329Z,30.67
2018-11-02T04:10:43.708Z,35.53
2018-11-02T04:13:13.002Z,32.57
2018-11-02T04:15:42.462Z,31.97
2018-11-02T04:18:11.628Z,31.87
2018-11-02T04:20:40.930Z,36.97
2018-11-02T04:23:10.225Z,30.97
2018-11-02T04:25:39.695Z,39.90
2018-11-02T04:28:08.980Z,38.97
2018-11-02T04:30:38.376Z,38.87
2018-11-02T04:33:07.866Z,36.53
2018-11-02T04:35:36.927Z,34.07
2018-11-02T04:38:06.317Z,42.50
2018-11-02T04:40:35.816Z,38.63
2018-11-02T04:43:05.025Z,41.20
2018-11-02T04:45:40.585Z,38.77
2018-11-02T04:48:12.103Z,39.77
2018-11-02T04:50:41.930Z,41.83
2018-11-02T04:53:11.020Z,41.53
2018-11-02T04:55:40.439Z,46.03
2018-11-02T04:58:10.112Z,43.80
2018-11-02T05:00:39.642Z,44.03
2018-11-02T05:03:08.916Z,44.00
2018-11-02T05:05:38.492Z,41.53
2018-11-02T05:08:07.885Z,41.07
2018-11-02T05:10:37.353Z,40.20
2018-11-02T05:13:07.184Z,43.23
2018-11-02T05:15:36.490Z,41.97
2018-11-02T05:18:05.917Z,39.57
2018-11-02T05:20:35.705Z,44.23
2018-11-02T05:23:05.051Z,41.17
2018-11-02T05:25:34.306Z,48.77
2018-11-02T05:28:04.144Z,40.63
2018-11-02T05:30:33.445Z,43.03
2018-11-02T05:33:02.760Z,48.40
2018-11-02T05:35:32.460Z,49.80
2018-11-02T05:38:01.839Z,54.87
2018-11-02T05:40:31.140Z,47.53
2018-11-02T05:43:00.800Z,47.60
2018-11-02T05:45:30.100Z,47.10
2018-11-02T05:47:59.462Z,48.53
2018-11-02T05:50:29.144Z,49.53
2018-11-02T05:52:58.618Z,48.07
2018-11-02T05:55:27.960Z,55.20
2018-11-02T05:57:57.833Z,50.93
2018-11-02T06:00:27.172Z,48.83
2018-11-02T06:02:56.426Z,52.23
2018-11-02T06:05:26.195Z,51.00
2018-11-02T06:07:55.501Z,53.37
2018-11-02T06:10:24.651Z,46.87
2018-11-02T06:12:54.287Z,48.27
2018-11-02T06:15:24.034Z,47.87
2018-11-02T06:17:53.241Z,45.67
2018-11-02T06:20:22.993Z,48.47
2018-11-02T06:22:52.348Z,46.97
2018-11-02T06:25:22.025Z,55.50
2018-11-02T06:27:51.492Z,51.63
2018-11-02T06:30:21.789Z,54.67
2018-11-02T06:32:50.950Z,57.83
2018-11-02T06:35:20.542Z,53.97
2018-11-02T06:37:49.675Z,53.03
2018-11-02T06:40:18.879Z,53.70
2018-11-02T06:42:48.908Z,52.80
2018-11-02T06:45:18.496Z,56.67
2018-11-02T06:47:48.170Z,57.30
2018-11-02T06:50:18.326Z,49.73
2018-11-02T06:52:47.924Z,56.10
2018-11-02T06:55:17.458Z,55.60
2018-11-02T06:57:47.481Z,64.80
2018-11-02T07:00:17.035Z,60.37
2018-11-02T07:02:46.613Z,51.90
2018-11-02T07:05:16.261Z,59.63
2018-11-02T07:07:45.959Z,57.27
2018-11-02T07:10:15.499Z,52.77
2018-11-02T07:12:45.568Z,58.93
2018-11-02T07:15:14.963Z,53.23
2018-11-02T07:17:44.464Z,54.70
2018-11-02T07:20:14.027Z,51.50
2018-11-02T07:22:43.343Z,54.77
2018-11-02T07:25:12.661Z,51.53
2018-11-02T07:27:42.436Z,52.20
2018-11-02T07:30:12.188Z,52.87
2018-11-02T07:32:41.614Z,53.23
2018-11-02T07:35:11.544Z,59.13
2018-11-02T07:37:40.993Z,53.77
2018-11-02T07:40:11.400Z,60.30
2018-11-02T07:42:40.983Z,57.43
2018-11-02T07:45:10.923Z,76.03
2018-11-02T07:47:40.179Z,84.33
2018-11-02T07:50:11.559Z,64.67
2018-11-02T07:52:41.224Z,53.07
2018-11-02T07:55:12.493Z,52.43
2018-11-02T07:57:41.868Z,61.20
2018-11-02T08:00:12.755Z,56.97
2018-11-02T08:02:44.017Z,50.03
2018-11-02T08:05:14.296Z,57.30
2018-11-02T08:07:44.031Z,56.73
2018-11-02T08:10:13.770Z,56.40
2018-11-02T08:12:43.057Z,57.40
2018-11-02T08:15:13.323Z,58.83
2018-11-02T08:17:43.217Z,61.60
2018-11-02T08:20:13.534Z,60.07
2018-11-02T08:22:43.384Z,78.83
2018-11-02T08:25:13.118Z,62.80
2018-11-02T08:27:42.667Z,61.03
2018-11-02T08:30:12.507Z,59.30
2018-11-02T08:32:41.716Z,62.27
2018-11-02T08:35:12.577Z,57.33
2018-11-02T08:37:42.459Z,60.03
2018-11-02T08:40:12.974Z,59.70
2018-11-02T08:42:42.598Z,56.50
2018-11-02T08:45:12.361Z,55.53
2018-11-02T08:47:41.679Z,55.47
2018-11-02T08:50:11.381Z,51.63
2018-11-02T08:52:40.786Z,55.67
2018-11-02T08:55:10.121Z,58.27
2018-11-02T08:57:39.584Z,58.17
2018-11-02T09:00:10.889Z,58.20
2018-11-02T09:02:40.532Z,61.47
2018-11-02T09:05:09.883Z,61.43
2018-11-02T09:07:39.501Z,59.77
2018-11-02T09:10:10.616Z,60.17
2018-11-02T09:12:39.934Z,67.13
2018-11-02T09:15:09.265Z,69.13
2018-11-02T09:17:38.567Z,60.90
2018-11-02T09:20:07.794Z,57.20
2018-11-02T09:22:37.180Z,53.20
2018-11-02T09:25:07.899Z,56.53
2018-11-02T09:27:37.268Z,66.57
2018-11-02T09:30:10.430Z,59.70
2018-11-02T09:32:39.664Z,57.37
2018-11-02T09:35:08.799Z,55.10
2018-11-02T09:37:38.501Z,56.80
2018-11-02T09:40:08.909Z,66.63
2018-11-02T09:42:38.182Z,65.83
2018-11-02T09:45:09.375Z,59.23
2018-11-02T09:47:38.703Z,56.40
2018-11-02T09:50:08.768Z,47.63
2018-11-02T09:52:38.817Z,47.70
2018-11-02T09:55:10.254Z,42.23
2018-11-02T09:57:40.012Z,40.17
2018-11-02T10:00:10.705Z,39.17
2018-11-02T10:02:39.993Z,41.33
2018-11-02T10:05:10.778Z,38.37
2018-11-02T10:07:40.862Z,36.30
2018-11-02T10:10:11.794Z,38.17
2018-11-02T10:12:41.042Z,34.33
2018-11-02T10:15:12.852Z,36.20
2018-11-02T10:17:42.596Z,38.93
2018-11-02T10:20:12.295Z,37.63
2018-11-02T10:22:41.762Z,36.83
2018-11-02T10:25:11.580Z,38.23
2018-11-02T10:27:42.651Z,33.30
2018-11-02T10:30:13.525Z,31.23
2018-11-02T10:32:44.924Z,33.20
2018-11-02T10:35:14.697Z,27.70
2018-11-02T10:37:44.398Z,33.80
2018-11-02T10:40:16.164Z,30.13
2018-11-02T10:42:49.132Z,35.97
2018-11-02T10:45:18.559Z,32.50
2018-11-02T10:47:48.397Z,36.23
2018-11-02T10:50:18.166Z,39.57
2018-11-02T10:52:47.761Z,35.10
2018-11-02T10:55:16.963Z,39.03
2018-11-02T10:57:46.749Z,35.43
2018-11-02T11:00:21.312Z,40.33
2018-11-02T11:02:50.904Z,40.53
2018-11-02T11:05:20.279Z,44.90
2018-11-02T11:07:49.807Z,40.67
2018-11-02T11:10:19.254Z,37.60
2018-11-02T11:12:48.759Z,41.90
2018-11-02T11:15:18.180Z,49.23
2018-11-02T11:17:47.725Z,48.23
2018-11-02T11:20:17.554Z,60.13
2018-11-02T11:22:47.068Z,54.37
2018-11-02T11:25:16.732Z,45.00
2018-11-02T11:27:45.957Z,44.10
2018-11-02T11:30:17.860Z,42.43
2018-11-02T11:32:48.217Z,49.50
2018-11-02T11:35:18.785Z,46.60
2018-11-02T11:37:48.271Z,50.53
2018-11-02T11:40:19.354Z,51.70
2018-11-02T11:42:48.695Z,47.17
2018-11-02T11:45:18.875Z,54.90
2018-11-02T11:47:48.534Z,52.10
2018-11-02T11:50:21.222Z,46.80
2018-11-02T11:52:51.785Z,53.20
2018-11-02T11:55:21.313Z,47.93
2018-11-02T11:57:50.946Z,42.20
2018-11-02T12:00:21.703Z,43.27
2018-11-02T12:02:51.506Z,54.33
2018-11-02T12:05:37.802Z,38.77
2018-11-02T12:08:07.337Z,41.23
2018-11-02T12:10:36.805Z,42.93
2018-11-02T12:13:06.872Z,41.13
2018-11-02T12:15:36.236Z,40.10
2018-11-02T12:18:05.821Z,44.10
2018-11-02T12:20:35.901Z,36.07
2018-11-02T12:23:05.566Z,35.27
2018-11-02T12:25:34.968Z,35.60
2018-11-02T12:28:05.090Z,38.97
2018-11-02T12:30:34.294Z,42.70
2018-11-02T12:33:03.595Z,38.57
2018-11-02T12:35:33.313Z,39.23
2018-11-02T12:38:02.570Z,48.07
2018-11-02T12:40:31.972Z,42.93
2018-11-02T12:43:01.716Z,41.30
2018-11-02T12:45:31.223Z,42.27
2018-11-02T12:48:00.516Z,43.03
2018-11-02T12:50:30.390Z,38.87
2018-11-02T12:53:00.307Z,43.47
2018-11-02T12:55:29.631Z,40.23
2018-11-02T12:57:59.370Z,42.83
2018-11-02T13:00:29.311Z,40.27
2018-11-02T13:02:58.842Z,38.67
2018-11-02T13:05:28.685Z,38.87
2018-11-02T13:07:57.921Z,42.53
2018-11-02T13:10:27.445Z,43.00
2018-11-02T13:12:57.090Z,40.27
2018-11-02T13:15:26.407Z,46.33
2018-11-02T13:17:55.861Z,48.73
2018-11-02T13:20:25.396Z,46.37
2018-11-02T13:22:54.635Z,47.73
2018-11-02T13:25:24.167Z,45.80
2018-11-02T13:27:53.788Z,48.50
2018-11-02T13:30:23.085Z,43.67
2018-11-02T13:32:52.304Z,45.60
2018-11-02T13:35:21.883Z,44.67
2018-11-02T13:37:51.643Z,45.60
2018-11-02T13:40:21.090Z,45.93
2018-11-02T13:42:50.589Z,51.73
2018-11-02T13:45:20.308Z,45.00
2018-11-02T13:47:49.741Z,48.53
2018-11-02T13:50:19.270Z,52.70
2018-11-02T13:52:48.648Z,51.23
2018-11-02T13:55:18.228Z,53.37
2018-11-02T13:57:47.998Z,47.93
2018-11-02T14:00:18.413Z,49.10
2018-11-02T14:02:48.174Z,55.13
2018-11-02T14:05:18.114Z,46.73
2018-11-02T14:07:47.549Z,47.17
2018-11-02T14:10:17.153Z,54.63
2018-11-02T14:12:46.785Z,43.47
2018-11-02T14:15:17.164Z,49.20
2018-11-02T14:17:46.711Z,50.93
2018-11-02T14:20:16.382Z,45.50
2018-11-02T14:22:45.873Z,50.63
2018-11-02T14:25:16.496Z,47.57
2018-11-02T14:27:46.070Z,48.10
2018-11-02T14:30:16.629Z,44.10
2018-11-02T14:32:46.837Z,43.33
2018-11-02T14:35:16.053Z,49.00
2018-11-02T14:37:45.582Z,44.20
2018-11-02T14:40:15.159Z,45.17
2018-11-02T14:42:44.421Z,41.83
2018-11-02T14:45:15.579Z,41.73
2018-11-02T14:47:46.214Z,39.73
2018-11-02T14:50:15.916Z,40.57
2018-11-02T14:52:45.593Z,36.53
2018-11-02T14:55:15.086Z,38.10
2018-11-02T14:57:44.924Z,35.73
2018-11-02T15:00:14.371Z,35.43
2018-11-02T15:02:43.901Z,42.47
2018-11-02T15:05:13.928Z,38.40
2018-11-02T15:07:43.811Z,38.00
2018-11-02T15:10:13.254Z,41.80
2018-11-02T15:12:42.639Z,35.87
2018-11-02T15:15:12.241Z,32.80
2018-11-02T15:17:41.669Z,37.80
2018-11-02T15:20:12.800Z,34.63
2018-11-02T15:22:42.318Z,34.90
2018-11-02T15:25:11.751Z,36.80
2018-11-02T15:27:41.255Z,32.33
2018-11-02T15:30:12.738Z,36.10
2018-11-02T15:32:43.003Z,38.20
2018-11-02T15:35:12.862Z,34.93
2018-11-02T15:37:42.538Z,29.83
2018-11-02T15:40:13.080Z,39.73
2018-11-02T15:42:42.760Z,39.60
2018-11-02T15:45:13.568Z,32.70
2018-11-02T15:47:43.241Z,41.37
2018-11-02T15:50:12.943Z,32.67
2018-11-02T15:52:42.590Z,34.03
2018-11-02T15:55:12.622Z,33.60
2018-11-02T15:57:42.457Z,32.17
2018-11-02T16:00:17.836Z,33.80
2018-11-02T16:02:48.935Z,29.43
2018-11-02T16:05:18.661Z,26.13
2018-11-02T16:07:48.623Z,26.83
2018-11-02T16:10:17.879Z,36.27
2018-11-02T16:12:47.399Z,34.83
2018-11-02T16:15:17.073Z,31.60
2018-11-02T16:17:46.839Z,35.40
2018-11-02T16:20:16.910Z,29.87
2018-11-02T16:22:46.455Z,25.67
2018-11-02T16:25:16.059Z,27.10
2018-11-02T16:27:45.746Z,24.57
2018-11-02T16:33:48.375Z,32.50
2018-11-02T16:36:17.971Z,18.80
2018-11-02T16:38:47.507Z,21.90
2018-11-02T16:41:17.360Z,26.70
2018-11-02T16:43:46.839Z,23.33
2018-11-02T16:46:16.116Z,25.87
2018-11-02T16:48:46.099Z,24.80
2018-11-02T16:51:15.487Z,18.23
2018-11-02T16:53:45.052Z,19.33
2018-11-02T16:56:14.942Z,19.07
2018-11-02T16:58:44.411Z,19.13
2018-11-02T17:01:13.793Z,19.67
2018-11-02T17:03:43.424Z,18.70
2018-11-02T17:06:12.833Z,21.03
2018-11-02T17:08:41.994Z,22.27
2018-11-02T17:11:11.650Z,21.70
2018-11-02T17:13:41.029Z,15.27
2018-11-02T17:16:10.273Z,25.33
2018-11-02T17:18:40.547Z,15.97
2018-11-02T17:21:10.022Z,16.53
2018-11-02T17:23:39.542Z,14.13
2018-11-02T17:26:09.209Z,17.70
2018-11-02T17:28:38.673Z,17.57
2018-11-02T17:31:07.986Z,14.87
2018-11-02T17:33:38.218Z,18.80
2018-11-02T17:36:07.781Z,16.17
2018-11-02T17:38:37.196Z,14.13
2018-11-02T17:41:07.178Z,12.87
2018-11-02T17:43:36.624Z,16.83
2018-11-02T17:46:06.339Z,11.47
2018-11-02T17:48:35.896Z,18.07
2018-11-02T17:51:05.424Z,17.60
2018-11-02T17:53:35.027Z,12.87
2018-11-02T17:56:04.892Z,12.10
2018-11-02T17:58:34.470Z,11.13
2018-11-02T18:01:03.779Z,10.00
2018-11-02T18:03:33.471Z,15.80
2018-11-02T18:06:03.117Z,11.93
2018-11-02T18:08:32.738Z,13.17
2018-11-02T18:11:02.170Z,12.90
2018-11-02T18:13:31.548Z,10.10
2018-11-02T18:16:01.556Z,15.00
2018-11-02T18:18:31.171Z,12.17
2018-11-02T18:21:00.490Z,15.90
2018-11-02T18:23:29.824Z,10.23
2018-11-02T18:25:59.442Z,12.17
2018-11-02T18:28:28.696Z,12.17
2018-11-02T18:30:58.069Z,9.40
2018-11-02T18:33:27.411Z,12.77
2018-11-02T18:35:56.611Z,15.97
2018-11-02T18:38:26.248Z,15.63
2018-11-02T18:40:55.785Z,10.80
2018-11-02T18:43:25.176Z,10.53
2018-11-02T18:45:54.812Z,10.30
2018-11-02T18:48:24.458Z,15.93
2018-11-02T18:50:53.646Z,9.53
2018-11-02T18:53:23.147Z,12.93
2018-11-02T18:55:53.112Z,12.57
2018-11-02T18:58:22.662Z,15.73
2018-11-02T19:00:53.165Z,14.60
2018-11-02T19:03:22.903Z,11.93
2018-11-02T19:05:52.267Z,16.93
2018-11-02T19:08:21.635Z,17.23
2018-11-02T19:10:51.189Z,11.27
2018-11-02T19:13:20.759Z,19.30
2018-11-02T19:15:50.247Z,13.53
2018-11-02T19:18:19.730Z,14.77
2018-11-02T19:20:49.234Z,12.83
2018-11-02T19:23:18.395Z,12.50
2018-11-02T19:25:47.982Z,12.83
2018-11-02T19:28:17.587Z,12.40
2018-11-02T19:30:47.043Z,16.17
2018-11-02T19:33:16.680Z,17.03
2018-11-02T19:35:46.319Z,11.03
2018-11-02T19:38:16.077Z,19.37
2018-11-02T19:40:45.926Z,13.83
2018-11-02T19:43:15.492Z,16.00
2018-11-02T19:45:45.226Z,15.30
2018-11-02T19:48:14.938Z,16.87
2018-11-02T19:50:44.342Z,15.33
2018-11-02T19:53:13.889Z,12.70
2018-11-02T19:55:43.417Z,12.23
2018-11-02T19:58:12.663Z,16.30
2018-11-02T20:00:42.153Z,17.63
2018-11-02T20:03:11.853Z,14.03
2018-11-02T20:05:41.272Z,17.57
2018-11-02T20:08:10.734Z,13.70
2018-11-02T20:10:40.348Z,19.63
2018-11-02T20:13:09.753Z,15.37
2018-11-02T20:15:39.221Z,14.40
2018-11-02T20:18:08.905Z,13.43
2018-11-02T20:20:38.501Z,17.10
2018-11-02T20:23:08.138Z,12.53
2018-11-02T20:25:37.976Z,20.47
2018-11-02T20:28:07.462Z,21.40
2018-11-02T20:30:37.068Z,19.00
2018-11-02T20:33:06.753Z,12.40
2018-11-02T20:35:36.003Z,14.43
2018-11-02T20:38:07.064Z,18.40
2018-11-02T20:40:36.727Z,21.07
2018-11-02T20:43:05.950Z,15.30
2018-11-02T20:45:35.583Z,15.67
2018-11-02T20:48:05.577Z,15.13
2018-11-02T20:50:34.955Z,18.83
2018-11-02T20:53:04.656Z,20.57
2018-11-02T20:55:34.396Z,14.23
2018-11-02T20:58:03.746Z,18.87
2018-11-02T21:00:33.212Z,21.00
2018-11-02T21:03:03.505Z,19.37
2018-11-02T21:05:32.782Z,16.27
2018-11-02T21:08:02.487Z,26.73
2018-11-02T21:10:31.956Z,19.37
2018-11-02T21:13:01.471Z,18.10
2018-11-02T21:15:30.897Z,23.23
2018-11-02T21:18:00.431Z,26.13
2018-11-02T21:20:29.852Z,20.97
2018-11-02T21:22:59.461Z,14.70
2018-11-02T21:25:28.864Z,21.87
2018-11-02T21:27:58.344Z,17.80
2018-11-02T21:30:27.860Z,17.73
2018-11-02T21:32:57.134Z,18.07
2018-11-02T21:35:26.543Z,22.07
2018-11-02T21:37:56.230Z,13.80
2018-11-02T21:40:26.185Z,17.80
2018-11-02T21:42:55.405Z,17.83
2018-11-02T21:45:25.253Z,10.43
2018-11-02T21:47:54.805Z,15.60
2018-11-02T21:50:24.028Z,13.77
2018-11-02T21:52:53.651Z,10.83
2018-11-02T21:55:23.750Z,7.57
2018-11-02T21:57:53.152Z,15.20
2018-11-02T22:00:23.594Z,7.13
2018-11-02T22:02:53.181Z,7.57
2018-11-02T22:05:22.351Z,8.97
2018-11-02T22:07:52.037Z,7.77
2018-11-02T22:10:21.888Z,5.03
2018-11-02T22:12:51.238Z,5.87
2018-11-02T22:15:21.027Z,6.47
2018-11-02T22:17:50.687Z,5.03
2018-11-02T22:20:20.015Z,6.37
2018-11-02T22:22:49.569Z,5.77
2018-11-02T22:25:19.224Z,8.63
2018-11-02T22:27:48.621Z,6.17
2018-11-02T22:30:18.474Z,7.03
2018-11-02T22:32:48.252Z,6.13
2018-11-02T22:35:17.922Z,5.77
2018-11-02T22:37:47.690Z,4.83
2018-11-02T22:40:17.639Z,6.07
2018-11-02T22:42:47.232Z,6.40
2018-11-02T22:45:16.993Z,5.43
2018-11-02T22:47:51.665Z,6.80
2018-11-02T22:50:21.272Z,5.07
2018-11-02T22:52:50.471Z,7.90
2018-11-02T22:55:19.911Z,6.47
2018-11-02T22:57:49.641Z,8.40
2018-11-02T23:00:19.692Z,8.97
2018-11-02T23:02:49.547Z,6.10
2018-11-02T23:05:19.192Z,13.37
2018-11-02T23:07:48.818Z,11.60
2018-11-02T23:10:18.655Z,11.20
2018-11-02T23:12:48.416Z,9.70
2018-11-02T23:15:17.910Z,12.10
2018-11-02T23:17:47.735Z,7.43
2018-11-02T23:20:17.471Z,7.53
2018-11-02T23:22:46.987Z,11.60
2018-11-02T23:25:16.617Z,14.47
2018-11-02T23:27:46.183Z,11.63
2018-11-02T23:30:15.606Z,14.00
2018-11-02T23:32:45.178Z,8.73
2018-11-02T23:35:14.895Z,9.30
2018-11-02T23:37:44.256Z,16.63
2018-11-02T23:40:14.013Z,6.53
2018-11-02T23:42:43.770Z,9.20
2018-11-02T23:45:13.317Z,6.57
2018-11-02T23:48:45.863Z,10.43
2018-11-02T23:51:15.697Z,9.97
2018-11-02T23:53:45.017Z,11.70
2018-11-02T23:56:14.416Z,11.40
2018-11-02T23:58:44.073Z,12.30
